Maersk Bulan — 9V7693 — position and weather

sailwx.info

Track history (hours):
 
Tides and Currents Weather Stations Pressure Air Temp Water Temp Dewpoint Dewpoint Depression Visibility Wind Speed Wind Dir Waves Ship Positions

Maersk Bulan

Last reported at 2015-Jul-31 07:10 UTC. Time now 2015-Aug-04 09:48 UTC.
Position N 41°17' E 029°08'.

Length 223 m; draft 8.5 m.

Type: Ship (hazmat cat A). MMSI: 563455000.

Date/timePositionNaut miles runAvg speedWind from/ knotsBaromVisibWave heightAir tempDewpointWater temp
2015-Jul-31 07:10N 41°17' E 029°08'259 7.5
2015-Jul-29 20:33N 43°18' E 034°19'1211.5
2015-Jul-29 19:32N 43°23' E 034°33'1111.5
2015-Jul-29 18:33N 43°28' E 034°47'1211.6
2015-Jul-29 17:33N 43°33' E 035°01'1211.7
2015-Jul-29 16:33N 43°38' E 035°16'1211.7
2015-Jul-29 15:33N 43°44' E 035°30'1211.6
2015-Jul-29 14:33N 43°49' E 035°44'3611.4
2015-Jul-29 11:21N 44°06' E 036°30'911.4
2015-Jul-29 10:33N 44°10' E 036°40'1211.6
2015-Jul-29 09:33N 44°15' E 036°55'1111.4
2015-Jul-29 08:33N 44°20' E 037°09'1111.1
2015-Jul-29 07:33N 44°25' E 037°23'1111.0
2015-Jul-29 06:33N 44°30' E 037°37'1111.0
2015-Jul-29 05:33N 44°37' E 037°49'6 6.0
2015-Jul-29 04:33N 44°43' E 037°49'0 0.1
2015-Jul-29 03:31N 44°43' E 037°49'0 0.0
2015-Jul-29 02:28N 44°43' E 037°49'0 0.0
2015-Jul-29 01:31N 44°43' E 037°49'0 0.0
2015-Jul-29 00:31N 44°43' E 037°49'0 0.0
2015-Jul-28 23:31N 44°43' E 037°49'0 0.0
2015-Jul-28 22:31N 44°43' E 037°49'0 0.0
2015-Jul-28 21:31N 44°43' E 037°49'0 0.0
2015-Jul-28 20:25N 44°43' E 037°49'0 0.0
2015-Jul-28 19:31N 44°43' E 037°49'0 0.0
2015-Jul-28 18:31N 44°43' E 037°49'0 0.0
2015-Jul-28 17:31N 44°43' E 037°49'0 0.0
2015-Jul-28 16:31N 44°43' E 037°49'0 0.0
2015-Jul-28 15:31N 44°43' E 037°49'0 0.0
2015-Jul-28 14:31N 44°43' E 037°49'0 0.0
2015-Jul-28 13:31N 44°43' E 037°49'0 0.0
2015-Jul-28 12:28N 44°43' E 037°49'0 0.0
2015-Jul-28 11:31N 44°43' E 037°49'0 0.0
2015-Jul-28 10:31N 44°43' E 037°49'0 0.0
2015-Jul-28 09:31N 44°43' E 037°49'0 0.0
2015-Jul-28 08:28N 44°43' E 037°49'0 0.0
2015-Jul-28 07:28N 44°43' E 037°49'3 3.5
2015-Jul-28 06:33N 44°40' E 037°50'6 5.8
2015-Jul-28 05:33N 44°35' E 037°51'4 3.7
2015-Jul-28 04:33N 44°31' E 037°51'0 0.2
2015-Jul-28 03:33N 44°31' E 037°51'3 2.6
2015-Jul-28 02:33N 44°30' E 037°48'9 9.4
2015-Jul-28 01:33N 44°25' E 037°36'4111.9
2015-Jul-27 22:08N 44°09' E 036°44'711.4
2015-Jul-27 21:33N 44°09' E 036°35'1111.1
2015-Jul-27 20:33N 44°10' E 036°20'1111.0
2015-Jul-27 19:33N 44°11' E 036°05'1311.1
2015-Jul-27 18:23N 44°12' E 035°46'2311.7
2015-Jul-27 16:24N 44°14' E 035°14'1312.4
2015-Jul-27 15:20N 44°16' E 034°56'912.0
2015-Jul-27 14:33N 44°16' E 034°43'1212.0
2015-Jul-27 13:33N 44°16' E 034°26'1211.7
2015-Jul-27 12:33N 44°15' E 034°10'1211.4
2015-Jul-27 11:33N 44°15' E 033°54'4411.0
2015-Jul-27 07:33N 44°37' E 033°01'1312.5
2015-Jul-27 06:33N 44°46' E 032°47'2613.0
2015-Jul-27 04:31N 45°06' E 032°24'1212.7
2015-Jul-27 03:33N 45°15' E 032°12'1312.9
2015-Jul-27 02:33N 45°25' E 031°60'1412.8
2015-Jul-27 01:28N 45°35' E 031°47'1213.0
2015-Jul-27 00:33N 45°43' E 031°34'1313.2
2015-Jul-26 23:33N 45°53' E 031°22'1313.2
2015-Jul-26 22:33N 46°03' E 031°10'1313.1
2015-Jul-26 21:33N 46°13' E 030°57'9 9.1
2015-Jul-26 20:33N 46°22' E 030°55'1111.4
2015-Jul-26 19:33N 46°33' E 030°59'10 0.7
2015-Jul-26 05:12N 46°23' E 030°57'1116.3
2015-Jul-26 04:33N 46°13' E 031°03'1717.1
2015-Jul-26 03:33N 45°56' E 031°02'32411.8
2015-Jul-25 00:05N 40°48' E 028°45'1 0.4
2015-Jul-24 22:25N 40°49' E 028°45'1 0.6
2015-Jul-24 21:18N 40°49' E 028°46'1 0.9
2015-Jul-24 20:30N 40°49' E 028°47'2 2.0
2015-Jul-24 19:33N 40°51' E 028°47'6 0.4
2015-Jul-24 05:33N 40°46' E 028°51'2019.8
2015-Jul-24 04:33N 40°44' E 029°17'1514.1
2015-Jul-24 03:30N 40°45' E 029°37'1 0.0
2015-Jul-22 19:12N 40°45' E 029°35'812.7
2015-Jul-22 18:33N 40°44' E 029°25'9 8.7
2015-Jul-22 17:33N 40°44' E 029°13'1 1.3
2015-Jul-22 16:32N 40°45' E 029°11'1 0.7
2015-Jul-22 15:32N 40°44' E 029°12'1 1.4
2015-Jul-22 14:33N 40°46' E 029°11'1 1.1
2015-Jul-22 13:32N 40°45' E 029°12'1 0.8
2015-Jul-22 12:33N 40°44' E 029°13'0 0.5
2015-Jul-22 11:33N 40°44' E 029°13'0 0.4
2015-Jul-22 10:31N 40°44' E 029°13'6 6.1
2015-Jul-22 09:33N 40°43' E 029°06'1110.9
2015-Jul-22 08:32N 40°44' E 028°51'  
Track history (hours):
 
Tides and Currents Weather Stations Pressure Air Temp Water Temp Dewpoint Dewpoint Depression Visibility Wind Speed Wind Dir Waves Ship Positions

Maersk Bulan

Last reported at 2015-Jul-31 07:10 UTC. Time now 2015-Aug-04 09:48 UTC.
Position N 41°17' E 029°08'.

Length 223 m; draft 8.5 m.

Type: Ship (hazmat cat A). MMSI: 563455000.

Date/timePositionNaut miles runAvg speedWind from/ knotsBaromVisibWave heightAir tempDewpointWater temp
2015-Jul-31 07:10N 41°17' E 029°08'259 7.5
2015-Jul-29 20:33N 43°18' E 034°19'1211.5
2015-Jul-29 19:32N 43°23' E 034°33'1111.5
2015-Jul-29 18:33N 43°28' E 034°47'1211.6
2015-Jul-29 17:33N 43°33' E 035°01'1211.7
2015-Jul-29 16:33N 43°38' E 035°16'1211.7
2015-Jul-29 15:33N 43°44' E 035°30'1211.6
2015-Jul-29 14:33N 43°49' E 035°44'3611.4
2015-Jul-29 11:21N 44°06' E 036°30'911.4
2015-Jul-29 10:33N 44°10' E 036°40'1211.6
2015-Jul-29 09:33N 44°15' E 036°55'1111.4
2015-Jul-29 08:33N 44°20' E 037°09'1111.1
2015-Jul-29 07:33N 44°25' E 037°23'1111.0
2015-Jul-29 06:33N 44°30' E 037°37'1111.0
2015-Jul-29 05:33N 44°37' E 037°49'6 6.0
2015-Jul-29 04:33N 44°43' E 037°49'0 0.1
2015-Jul-29 03:31N 44°43' E 037°49'0 0.0
2015-Jul-29 02:28N 44°43' E 037°49'0 0.0
2015-Jul-29 01:31N 44°43' E 037°49'0 0.0
2015-Jul-29 00:31N 44°43' E 037°49'0 0.0
2015-Jul-28 23:31N 44°43' E 037°49'0 0.0
2015-Jul-28 22:31N 44°43' E 037°49'0 0.0
2015-Jul-28 21:31N 44°43' E 037°49'0 0.0
2015-Jul-28 20:25N 44°43' E 037°49'0 0.0
2015-Jul-28 19:31N 44°43' E 037°49'0 0.0
2015-Jul-28 18:31N 44°43' E 037°49'0 0.0
2015-Jul-28 17:31N 44°43' E 037°49'0 0.0
2015-Jul-28 16:31N 44°43' E 037°49'0 0.0
2015-Jul-28 15:31N 44°43' E 037°49'0 0.0
2015-Jul-28 14:31N 44°43' E 037°49'0 0.0
2015-Jul-28 13:31N 44°43' E 037°49'0 0.0
2015-Jul-28 12:28N 44°43' E 037°49'0 0.0
2015-Jul-28 11:31N 44°43' E 037°49'0 0.0
2015-Jul-28 10:31N 44°43' E 037°49'0 0.0
2015-Jul-28 09:31N 44°43' E 037°49'0 0.0
2015-Jul-28 08:28N 44°43' E 037°49'0 0.0
2015-Jul-28 07:28N 44°43' E 037°49'3 3.5
2015-Jul-28 06:33N 44°40' E 037°50'6 5.8
2015-Jul-28 05:33N 44°35' E 037°51'4 3.7
2015-Jul-28 04:33N 44°31' E 037°51'0 0.2
2015-Jul-28 03:33N 44°31' E 037°51'3 2.6
2015-Jul-28 02:33N 44°30' E 037°48'9 9.4
2015-Jul-28 01:33N 44°25' E 037°36'4111.9
2015-Jul-27 22:08N 44°09' E 036°44'711.4
2015-Jul-27 21:33N 44°09' E 036°35'1111.1
2015-Jul-27 20:33N 44°10' E 036°20'1111.0
2015-Jul-27 19:33N 44°11' E 036°05'1311.1
2015-Jul-27 18:23N 44°12' E 035°46'2311.7
2015-Jul-27 16:24N 44°14' E 035°14'1312.4
2015-Jul-27 15:20N 44°16' E 034°56'912.0
2015-Jul-27 14:33N 44°16' E 034°43'1212.0
2015-Jul-27 13:33N 44°16' E 034°26'1211.7
2015-Jul-27 12:33N 44°15' E 034°10'1211.4
2015-Jul-27 11:33N 44°15' E 033°54'4411.0
2015-Jul-27 07:33N 44°37' E 033°01'1312.5
2015-Jul-27 06:33N 44°46' E 032°47'2613.0
2015-Jul-27 04:31N 45°06' E 032°24'1212.7
2015-Jul-27 03:33N 45°15' E 032°12'1312.9
2015-Jul-27 02:33N 45°25' E 031°60'1412.8
2015-Jul-27 01:28N 45°35' E 031°47'1213.0
2015-Jul-27 00:33N 45°43' E 031°34'1313.2
2015-Jul-26 23:33N 45°53' E 031°22'1313.2
2015-Jul-26 22:33N 46°03' E 031°10'1313.1
2015-Jul-26 21:33N 46°13' E 030°57'9 9.1
2015-Jul-26 20:33N 46°22' E 030°55'1111.4
2015-Jul-26 19:33N 46°33' E 030°59'10 0.7
2015-Jul-26 05:12N 46°23' E 030°57'1116.3
2015-Jul-26 04:33N 46°13' E 031°03'1717.1
2015-Jul-26 03:33N 45°56' E 031°02'32411.8
2015-Jul-25 00:05N 40°48' E 028°45'1 0.4
2015-Jul-24 22:25N 40°49' E 028°45'1 0.6
2015-Jul-24 21:18N 40°49' E 028°46'1 0.9
2015-Jul-24 20:30N 40°49' E 028°47'2 2.0
2015-Jul-24 19:33N 40°51' E 028°47'6 0.4
2015-Jul-24 05:33N 40°46' E 028°51'2019.8
2015-Jul-24 04:33N 40°44' E 029°17'1514.1
2015-Jul-24 03:30N 40°45' E 029°37'1 0.0
2015-Jul-22 19:12N 40°45' E 029°35'812.7
2015-Jul-22 18:33N 40°44' E 029°25'9 8.7
2015-Jul-22 17:33N 40°44' E 029°13'1 1.3
2015-Jul-22 16:32N 40°45' E 029°11'1 0.7
2015-Jul-22 15:32N 40°44' E 029°12'1 1.4
2015-Jul-22 14:33N 40°46' E 029°11'1 1.1
2015-Jul-22 13:32N 40°45' E 029°12'1 0.8
2015-Jul-22 12:33N 40°44' E 029°13'0 0.5
2015-Jul-22 11:33N 40°44' E 029°13'0 0.4
2015-Jul-22 10:31N 40°44' E 029°13'6 6.1
2015-Jul-22 09:33N 40°43' E 029°06'1110.9
2015-Jul-22 08:32N 40°44' E 028°51'  

Dump ship's entire track history